Time;durP1;ratioP1;P1;durP2;ratioP2;P2;SDS_P1;SDS_P2;PMS_P1;PMS_P2;Temp;Humidity;BMP_temperature;BMP_pressure;BME280_temperature;BME280_humidity;BME280_pressure;Samples;Min_cycle;Max_cycle;Signal;HPM_P1;HPM_P2
2022/12/09 06:56:41;;;;;;;5.38;3.75;;;;;;;;;;10610058;27;20109;-80
2022/12/09 07:01:43;;;;;;;6.40;4.10;;;;;;;;;;10608571;28;20024;-81
2022/12/09 07:06:44;;;;;;;6.63;5.03;;;;;;;;;;10607957;28;20024;-80
2022/12/09 07:11:46;;;;;;;5.88;4.38;;;;;;;;;;10611189;28;20440;-81
2022/12/09 07:16:47;;;;;;;5.45;3.80;;;;;;;;;;10612320;28;20035;-81
2022/12/09 07:21:48;;;;;;;;;;;;;;;;;;10616882;28;20032;-80
2022/12/09 07:26:50;;;;;;;7.50;5.35;;;;;;;;;;10609600;28;19904;-81
2022/12/09 07:31:51;;;;;;;4.90;3.70;;;;;;;;;;10605704;28;20119;-81
2022/12/09 07:36:52;;;;;;;6.05;4.28;;;;;;;;;;10606212;28;20032;-80
2022/12/09 07:41:53;;;;;;;;;;;;;;;;;;10605714;28;20047;-82
2022/12/09 07:46:54;;;;;;;6.22;4.68;;;;;;;;;;10605258;28;19936;-81
2022/12/09 07:52:22;;;;;;;6.65;4.60;;;;;;;;;;10590430;22;20136;-85
2022/12/09 07:57:36;;;;;;;6.43;4.60;;;;;;;;;;10411047;28;20121;-84
2022/12/09 08:02:44;;;;;;;7.45;5.57;;;;;;;;;;10393630;28;20042;-86
2022/12/09 08:07:45;;;;;;;8.50;6.30;;;;;;;;;;10388463;28;20022;-86
2022/12/09 10:45:48;;;;;;;10.95;8.23;;;;;;;;;;10503694;28;20029;-88
2022/12/09 11:36:28;;;;;;;9.25;5.57;;;;;;;;;;10719614;22;20044;-89
2022/12/09 13:52:33;;;;;;;7.90;5.35;;;;;;;;;;10207921;23;20329;-82
2022/12/09 13:57:44;;;;;;;5.47;4.40;;;;;;;;;;10180111;29;20047;-83
2022/12/09 14:03:05;;;;;;;5.00;4.07;;;;;;;;;;10181460;29;20508;-82
2022/12/09 14:08:22;;;;;;;7.25;5.47;;;;;;;;;;10198436;29;20036;-79
2022/12/09 14:13:31;;;;;;;6.55;4.68;;;;;;;;;;10184372;29;20124;-83
2022/12/09 14:18:32;;;;;;;7.50;5.75;;;;;;;;;;10175959;29;20040;-81
2022/12/09 14:23:34;;;;;;;7.10;5.80;;;;;;;;;;10175870;29;20136;-81
2022/12/09 14:28:35;;;;;;;;;;;;;;;;;;10174141;29;20036;-80
2022/12/09 14:33:36;;;;;;;;;;;;;;;;;;10172853;29;19914;-80
2022/12/09 14:38:37;;;;;;;9.48;8.35;;;;;;;;;;10173077;29;19914;-80
2022/12/09 14:43:51;;;;;;;10.25;7.82;;;;;;;;;;10172755;29;20139;-80
2022/12/09 14:48:55;;;;;;;8.55;6.63;;;;;;;;;;10173732;29;20056;-81
2022/12/09 14:53:58;;;;;;;7.05;5.43;;;;;;;;;;10173184;29;20079;-80
2022/12/09 14:59:02;;;;;;;6.30;5.28;;;;;;;;;;10173659;29;20032;-79
2022/12/09 15:04:04;;;;;;;7.75;5.35;;;;;;;;;;10175462;29;20036;-81
2022/12/09 15:09:05;;;;;;;8.50;6.65;;;;;;;;;;10172668;29;20036;-80
2022/12/09 15:19:27;;;;;;;10.40;6.28;;;;;;;;;;10199426;29;19907;-79
2022/12/09 15:24:31;;;;;;;11.20;8.93;;;;;;;;;;10182865;29;20032;-80
2022/12/09 15:29:33;;;;;;;27.90;20.30;;;;;;;;;;10182686;29;20033;-79
2022/12/09 15:34:34;;;;;;;14.80;10.60;;;;;;;;;;10181360;29;20036;-80
2022/12/09 15:39:35;;;;;;;;;;;;;;;;;;10181103;29;20099;-79
2022/12/09 15:44:45;;;;;;;22.63;18.73;;;;;;;;;;10181681;29;19973;-81
2022/12/09 15:50:02;;;;;;;21.42;16.65;;;;;;;;;;10199053;29;20032;-80
2022/12/09 15:55:05;;;;;;;26.95;20.48;;;;;;;;;;10181786;29;20052;-80
2022/12/09 16:00:07;;;;;;;25.45;19.02;;;;;;;;;;10182510;29;20043;-79
2022/12/09 16:05:09;;;;;;;17.02;11.27;;;;;;;;;;10180431;29;20052;-79
2022/12/09 16:10:11;;;;;;;29.98;21.13;;;;;;;;;;10181805;29;20044;-79
2022/12/09 16:15:14;;;;;;;32.83;23.10;;;;;;;;;;10181054;29;20058;-80
2022/12/09 16:20:35;;;;;;;29.13;19.83;;;;;;;;;;10198021;29;20040;-79
2022/12/09 16:25:42;;;;;;;41.15;27.35;;;;;;;;;;10179904;29;20067;-79
2022/12/09 16:30:45;;;;;;;25.65;15.95;;;;;;;;;;10181205;29;20080;-78
2022/12/09 16:35:55;;;;;;;22.30;15.95;;;;;;;;;;10192129;29;20029;-80
2022/12/09 16:40:58;;;;;;;27.52;17.20;;;;;;;;;;10186123;29;20036;-79
2022/12/09 16:46:19;;;;;;;21.05;15.38;;;;;;;;;;10181759;29;20129;-81
2022/12/09 16:51:24;;;;;;;22.75;16.17;;;;;;;;;;10183663;29;20072;-80
2022/12/09 16:56:26;;;;;;;31.80;22.48;;;;;;;;;;10181491;29;20047;-79
2022/12/09 17:01:32;;;;;;;24.85;17.77;;;;;;;;;;10180427;29;20044;-80
2022/12/09 17:06:33;;;;;;;30.00;20.85;;;;;;;;;;10179979;29;20497;-80
2022/12/09 17:11:34;;;;;;;25.20;17.45;;;;;;;;;;10180249;29;20036;-79
2022/12/09 17:16:36;;;;;;;18.10;12.02;;;;;;;;;;10189848;29;20032;-81
2022/12/09 17:21:37;;;;;;;27.85;18.40;;;;;;;;;;10196979;29;20044;-81
2022/12/09 17:26:38;;;;;;;27.10;19.25;;;;;;;;;;10174518;29;20135;-80
2022/12/09 17:31:40;;;;;;;29.42;19.90;;;;;;;;;;10174947;29;20032;-80
2022/12/09 17:36:41;;;;;;;27.52;19.58;;;;;;;;;;10173658;29;20035;-80
2022/12/09 17:41:42;;;;;;;;;;;;;;;;;;10179640;29;20044;-81
2022/12/09 17:46:43;;;;;;;;;;;;;;;;;;10194076;29;19953;-80
2022/12/09 17:51:51;;;;;;;19.00;14.23;;;;;;;;;;10184801;29;20017;-80
2022/12/09 17:56:53;;;;;;;22.60;16.55;;;;;;;;;;10176206;29;20083;-80
2022/12/09 18:01:54;;;;;;;24.25;18.00;;;;;;;;;;10175622;29;20068;-81
2022/12/09 18:06:56;;;;;;;22.02;16.77;;;;;;;;;;10190441;29;20043;-80
2022/12/09 18:11:57;;;;;;;21.23;14.80;;;;;;;;;;10168261;29;20385;-81
2022/12/09 18:16:59;;;;;;;23.38;16.85;;;;;;;;;;10167765;29;20055;-81
2022/12/09 18:22:01;;;;;;;18.70;14.07;;;;;;;;;;10167507;29;20040;-81
2022/12/09 18:27:02;;;;;;;24.48;18.25;;;;;;;;;;10166407;29;20036;-82
2022/12/09 18:32:06;;;;;;;13.18;10.35;;;;;;;;;;10167011;29;20043;-82
2022/12/09 18:37:10;;;;;;;22.20;13.85;;;;;;;;;;10165530;29;20047;-82
2022/12/09 18:42:11;;;;;;;18.77;13.93;;;;;;;;;;10213550;23;20144;-82
2022/12/09 18:47:13;;;;;;;18.98;14.23;;;;;;;;;;10217462;29;20054;-81
2022/12/09 18:52:39;;;;;;;16.55;12.65;;;;;;;;;;10254162;29;20024;-81
2022/12/09 18:58:00;;;;;;;;;;;;;;;;;;;;;
2022/12/09 19:03:10;;;;;;;14.63;11.80;;;;;;;;;;10225661;29;20047;-82
2022/12/09 19:08:52;;;;;;;;;;;;;;;;;;;;;
2022/12/09 19:14:19;;;;;;;13.60;10.45;;;;;;;;;;10221967;29;20035;-82
2022/12/09 19:19:51;;;;;;;13.13;10.57;;;;;;;;;;10171796;29;20032;-82
2022/12/09 19:41:19;;;;;;;20.05;14.50;;;;;;;;;;10181320;29;20060;-82
2022/12/09 19:52:18;;;;;;;17.45;14.10;;;;;;;;;;10230478;23;20072;-82
2022/12/09 19:57:35;;;;;;;;;;;;;;;;;;;;;
2022/12/09 20:02:39;;;;;;;13.48;10.93;;;;;;;;;;10231747;29;20042;-82
2022/12/09 20:07:53;;;;;;;;;;;;;;;;;;;;;
2022/12/09 20:12:57;;;;;;;18.45;14.38;;;;;;;;;;10241746;29;20061;-82
2022/12/09 20:18:34;;;;;;;11.52;9.23;;;;;;;;;;10216484;29;20067;-82
